GLO9628 SBGR-SBEG
Flight info
| Callsign | GLO9628 |
|---|---|
| Flight time | 3h 25m |
| Altitude | 36000 |
| Route | GERTU UM417 EVRIV DCT PUDKA DCT MATNA DCT IRUMO |
| Aircraft | B738/M-SDFGIKLORWXY/LB1 |
Departure
| Time | 2026-04-20 22:40 |
|---|---|
| Airport | São Paulo/Guarulhos–Governor André Franco Montoro International Airport (SBGR) |
Arrival
| Time | 2026-04-21 02:05 |
|---|---|
| Airport | Eduardo Gomes International Airport (SBEG) |
| Time | Latitude | Longitude | Altitude | Speed | Heading |
|---|---|---|---|---|---|
| 2026-04-20 22:20 | -23.43051 | -46.48666 | 2467 ft | 0 kts | 95° |
| 2026-04-20 22:35 | -23.43051 | -46.48665 | 2467 ft | 0 kts | 95° |
| 2026-04-20 22:35 | -23.43050 | -46.48677 | 2467 ft | 3 kts | 95° |
| 2026-04-20 22:35 | -23.43054 | -46.48705 | 2471 ft | 4 kts | 48° |
| 2026-04-20 22:35 | -23.43059 | -46.48712 | 2469 ft | 1 kts | 2° |
| 2026-04-20 22:36 | -23.43051 | -46.48713 | 2467 ft | 2 kts | 353° |
| 2026-04-20 22:36 | -23.43026 | -46.48707 | 2472 ft | 5 kts | 31° |
| 2026-04-20 22:36 | -23.42996 | -46.48673 | 2471 ft | 8 kts | 56° |
| 2026-04-20 22:36 | -23.42986 | -46.48605 | 2467 ft | 10 kts | 95° |
| 2026-04-20 22:37 | -23.42992 | -46.48533 | 2467 ft | 9 kts | 95° |
| 2026-04-20 22:37 | -23.43006 | -46.48466 | 2468 ft | 9 kts | 123° |
| 2026-04-20 22:37 | -23.43061 | -46.48439 | 2471 ft | 9 kts | 163° |
| 2026-04-20 22:37 | -23.43119 | -46.48420 | 2467 ft | 9 kts | 163° |
| 2026-04-20 22:38 | -23.43176 | -46.48402 | 2469 ft | 8 kts | 163° |
| 2026-04-20 22:38 | -23.43230 | -46.48385 | 2470 ft | 8 kts | 163° |
| 2026-04-20 22:38 | -23.43288 | -46.48367 | 2470 ft | 12 kts | 163° |
| 2026-04-20 22:38 | -23.43371 | -46.48332 | 2469 ft | 13 kts | 143° |
| 2026-04-20 22:39 | -23.43404 | -46.48250 | 2468 ft | 13 kts | 84° |
| 2026-04-20 22:39 | -23.43349 | -46.48035 | 2470 ft | 59 kts | 73° |
| 2026-04-20 22:39 | -23.43166 | -46.47364 | 2469 ft | 123 kts | 73° |
| 2026-04-20 22:39 | -23.42871 | -46.46279 | 2470 ft | 175 kts | 75° |
| 2026-04-20 22:40 | -23.42454 | -46.44872 | 2675 ft | 204 kts | 72° |
| 2026-04-20 22:40 | -23.42049 | -46.43453 | 3700 ft | 187 kts | 81° |
| 2026-04-20 22:40 | -23.41510 | -46.42108 | 4134 ft | 212 kts | 46° |
| 2026-04-20 22:40 | -23.40185 | -46.41291 | 4379 ft | 230 kts | 25° |
| 2026-04-20 22:41 | -23.38695 | -46.40450 | 4609 ft | 252 kts | 33° |
| 2026-04-20 22:41 | -23.37181 | -46.39426 | 5201 ft | 261 kts | 35° |
| 2026-04-20 22:41 | -23.35768 | -46.38086 | 5627 ft | 276 kts | 47° |
| 2026-04-20 22:41 | -23.34391 | -46.36527 | 6232 ft | 284 kts | 46° |
| 2026-04-20 22:42 | -23.33015 | -46.34975 | 6909 ft | 289 kts | 45° |
| 2026-04-20 22:42 | -23.31590 | -46.33385 | 7547 ft | 294 kts | 45° |
| 2026-04-20 22:42 | -23.30157 | -46.31789 | 8233 ft | 298 kts | 45° |
| 2026-04-20 22:42 | -23.28698 | -46.30168 | 8924 ft | 300 kts | 46° |
| 2026-04-20 22:43 | -23.27230 | -46.28539 | 9579 ft | 305 kts | 46° |
| 2026-04-20 22:43 | -23.25733 | -46.26878 | 10226 ft | 310 kts | 46° |
| 2026-04-20 22:43 | -23.24713 | -46.25745 | 10391 ft | 324 kts | 46° |
| 2026-04-20 22:43 | -23.23081 | -46.23935 | 10548 ft | 346 kts | 46° |
| 2026-04-20 22:44 | -23.21349 | -46.22014 | 10739 ft | 364 kts | 46° |
| 2026-04-20 22:44 | -23.19541 | -46.20011 | 11152 ft | 373 kts | 46° |
| 2026-04-20 22:44 | -23.17720 | -46.17995 | 11730 ft | 376 kts | 46° |
| 2026-04-20 22:44 | -23.15881 | -46.15960 | 12349 ft | 379 kts | 46° |
| 2026-04-20 22:45 | -23.13956 | -46.13970 | 12905 ft | 383 kts | 36° |
| 2026-04-20 22:45 | -23.11557 | -46.12731 | 13429 ft | 387 kts | 12° |
| 2026-04-20 22:45 | -23.08882 | -46.12527 | 14007 ft | 386 kts | 351° |
| 2026-04-20 22:45 | -23.06306 | -46.13320 | 14479 ft | 386 kts | 332° |
| 2026-04-20 22:46 | -23.04117 | -46.14955 | 14978 ft | 383 kts | 314° |
| 2026-04-20 22:46 | -23.02198 | -46.16975 | 15480 ft | 385 kts | 312° |
| 2026-04-20 22:46 | -23.00297 | -46.19042 | 15954 ft | 389 kts | 312° |
| 2026-04-20 22:46 | -22.98368 | -46.21134 | 16416 ft | 393 kts | 312° |
| 2026-04-20 22:47 | -22.96417 | -46.23225 | 16907 ft | 396 kts | 313° |
| 2026-04-20 22:47 | -22.94435 | -46.25324 | 17397 ft | 399 kts | 313° |
| 2026-04-20 22:47 | -22.92435 | -46.27431 | 17865 ft | 402 kts | 313° |
| 2026-04-20 22:47 | -22.90430 | -46.29569 | 18333 ft | 405 kts | 310° |
| 2026-04-20 22:48 | -22.88868 | -46.32082 | 18714 ft | 402 kts | 292° |
| 2026-04-20 22:48 | -22.87691 | -46.34833 | 19159 ft | 403 kts | 291° |
| 2026-04-20 22:48 | -22.86508 | -46.37595 | 19562 ft | 406 kts | 292° |
| 2026-04-20 22:48 | -22.85303 | -46.40375 | 19949 ft | 409 kts | 292° |
| 2026-04-20 22:49 | -22.84079 | -46.43167 | 20360 ft | 411 kts | 292° |
| 2026-04-20 22:49 | -22.82840 | -46.45968 | 20776 ft | 413 kts | 292° |
| 2026-04-20 22:49 | -22.81588 | -46.48783 | 21185 ft | 415 kts | 292° |
| 2026-04-20 22:49 | -22.80326 | -46.51611 | 21553 ft | 418 kts | 292° |
| 2026-04-20 22:50 | -22.79054 | -46.54459 | 21943 ft | 421 kts | 292° |
| 2026-04-20 22:50 | -22.77777 | -46.57314 | 22318 ft | 423 kts | 292° |
| 2026-04-20 22:50 | -22.76488 | -46.60195 | 22690 ft | 426 kts | 292° |
| 2026-04-20 22:50 | -22.75193 | -46.63091 | 23044 ft | 428 kts | 292° |
| 2026-04-20 22:51 | -22.73893 | -46.65995 | 23415 ft | 430 kts | 291° |
| 2026-04-20 22:51 | -22.72580 | -46.68926 | 23757 ft | 432 kts | 291° |
| 2026-04-20 22:51 | -22.71264 | -46.71862 | 24067 ft | 434 kts | 291° |
| 2026-04-20 22:51 | -22.69944 | -46.74805 | 24409 ft | 434 kts | 292° |
| 2026-04-20 22:52 | -22.68622 | -46.77751 | 24730 ft | 436 kts | 292° |
| 2026-04-20 22:52 | -22.67295 | -46.80706 | 25028 ft | 437 kts | 292° |
| 2026-04-20 22:52 | -22.65964 | -46.83665 | 25331 ft | 438 kts | 292° |
| 2026-04-20 22:52 | -22.64624 | -46.86635 | 25643 ft | 439 kts | 292° |
| 2026-04-20 22:53 | -22.63279 | -46.89611 | 25957 ft | 440 kts | 292° |
| 2026-04-20 22:53 | -22.61929 | -46.92599 | 26246 ft | 442 kts | 292° |
| 2026-04-20 22:53 | -22.60581 | -46.95585 | 26530 ft | 443 kts | 292° |
| 2026-04-20 22:53 | -22.59232 | -46.98580 | 26804 ft | 444 kts | 292° |
| 2026-04-20 22:54 | -22.57875 | -47.01592 | 27113 ft | 445 kts | 292° |
| 2026-04-20 22:54 | -22.56534 | -47.04567 | 27395 ft | 446 kts | 292° |
| 2026-04-20 22:54 | -22.55161 | -47.07637 | 27664 ft | 447 kts | 290° |
| 2026-04-20 22:54 | -22.54128 | -47.10794 | 27899 ft | 445 kts | 283° |
| 2026-04-20 22:55 | -22.53352 | -47.13986 | 28180 ft | 445 kts | 281° |
| 2026-04-20 22:55 | -22.52605 | -47.17280 | 28452 ft | 446 kts | 281° |
| 2026-04-20 22:55 | -22.51862 | -47.20540 | 28673 ft | 448 kts | 281° |
| 2026-04-20 22:55 | -22.51103 | -47.23768 | 28892 ft | 450 kts | 282° |
| 2026-04-20 22:56 | -22.50308 | -47.27042 | 29147 ft | 451 kts | 282° |
| 2026-04-20 22:56 | -22.49495 | -47.30322 | 29406 ft | 452 kts | 282° |
| 2026-04-20 22:56 | -22.48675 | -47.33600 | 29637 ft | 453 kts | 283° |
| 2026-04-20 22:56 | -22.47848 | -47.36893 | 29922 ft | 453 kts | 283° |
| 2026-04-20 22:57 | -22.47025 | -47.40171 | 30264 ft | 451 kts | 283° |
| 2026-04-20 22:57 | -22.46205 | -47.43434 | 30612 ft | 448 kts | 283° |
| 2026-04-20 22:57 | -22.45393 | -47.46674 | 30975 ft | 445 kts | 283° |
| 2026-04-20 22:57 | -22.44583 | -47.49899 | 31316 ft | 443 kts | 283° |
| 2026-04-20 22:58 | -22.43743 | -47.53092 | 31623 ft | 442 kts | 288° |
| 2026-04-20 22:58 | -22.42272 | -47.56014 | 31910 ft | 447 kts | 304° |
| 2026-04-20 22:58 | -22.40138 | -47.58469 | 32237 ft | 451 kts | 317° |
| 2026-04-20 22:58 | -22.37601 | -47.60482 | 32543 ft | 452 kts | 321° |
| 2026-04-20 22:59 | -22.35008 | -47.62393 | 32812 ft | 452 kts | 322° |
| 2026-04-20 22:59 | -22.32396 | -47.64280 | 33074 ft | 451 kts | 322° |
| 2026-04-20 22:59 | -22.29799 | -47.66161 | 33356 ft | 449 kts | 321° |
| 2026-04-20 22:59 | -22.27214 | -47.68053 | 33663 ft | 447 kts | 321° |
| 2026-04-20 23:00 | -22.24649 | -47.69953 | 33930 ft | 446 kts | 319° |
| 2026-04-20 23:00 | -22.22154 | -47.71844 | 34258 ft | 442 kts | 320° |
| 2026-04-20 23:00 | -22.19617 | -47.73738 | 34436 ft | 443 kts | 320° |
| 2026-04-20 23:00 | -22.17064 | -47.75638 | 34493 ft | 446 kts | 320° |
| 2026-04-20 23:01 | -22.14502 | -47.77544 | 34614 ft | 447 kts | 320° |
| 2026-04-20 23:01 | -22.11946 | -47.79446 | 34812 ft | 446 kts | 320° |
| 2026-04-20 23:01 | -22.09394 | -47.81347 | 35028 ft | 445 kts | 319° |
| 2026-04-20 23:01 | -22.06846 | -47.83246 | 35214 ft | 445 kts | 319° |
| 2026-04-20 23:02 | -22.04293 | -47.85150 | 35320 ft | 446 kts | 319° |
| 2026-04-20 23:02 | -22.01732 | -47.87061 | 35416 ft | 448 kts | 319° |
| 2026-04-20 23:02 | -21.99166 | -47.88973 | 35599 ft | 448 kts | 319° |
| 2026-04-20 23:02 | -21.96610 | -47.90876 | 35806 ft | 446 kts | 318° |
| 2026-04-20 23:03 | -21.94055 | -47.92778 | 35975 ft | 446 kts | 318° |
| 2026-04-20 23:03 | -21.91529 | -47.94659 | 36048 ft | 447 kts | 318° |
| 2026-04-20 23:03 | -21.86359 | -47.98506 | 36057 ft | 449 kts | 318° |
| 2026-04-20 23:04 | -21.81233 | -48.02313 | 36038 ft | 447 kts | 318° |
| 2026-04-20 23:04 | -21.76142 | -48.06122 | 36047 ft | 444 kts | 317° |
| 2026-04-20 23:05 | -21.71138 | -48.09945 | 36051 ft | 442 kts | 317° |
| 2026-04-20 23:05 | -21.66128 | -48.13780 | 36041 ft | 442 kts | 317° |
| 2026-04-20 23:06 | -21.61114 | -48.17607 | 36042 ft | 442 kts | 317° |
| 2026-04-20 23:06 | -21.56091 | -48.21432 | 36047 ft | 443 kts | 317° |
| 2026-04-20 23:07 | -21.51046 | -48.25269 | 36039 ft | 445 kts | 317° |
| 2026-04-20 23:07 | -21.45982 | -48.29117 | 36034 ft | 447 kts | 317° |
| 2026-04-20 23:08 | -21.40887 | -48.32984 | 36033 ft | 449 kts | 317° |
| 2026-04-20 23:08 | -21.35774 | -48.36861 | 36031 ft | 451 kts | 317° |
| 2026-04-20 23:09 | -21.30642 | -48.40750 | 36032 ft | 452 kts | 318° |
| 2026-04-20 23:09 | -21.25496 | -48.44646 | 36016 ft | 453 kts | 317° |
| 2026-04-20 23:10 | -21.20329 | -48.48553 | 36029 ft | 454 kts | 317° |
| 2026-04-20 23:10 | -21.15194 | -48.52433 | 36022 ft | 454 kts | 318° |
| 2026-04-20 23:11 | -21.10039 | -48.56325 | 36016 ft | 453 kts | 318° |
| 2026-04-20 23:11 | -21.04879 | -48.60218 | 36002 ft | 453 kts | 318° |
| 2026-04-20 23:12 | -20.99734 | -48.64096 | 36012 ft | 452 kts | 318° |
| 2026-04-20 23:12 | -20.94601 | -48.67962 | 36025 ft | 451 kts | 318° |
| 2026-04-20 23:13 | -20.89476 | -48.71819 | 36016 ft | 450 kts | 318° |
| 2026-04-20 23:13 | -20.84352 | -48.75673 | 36002 ft | 450 kts | 318° |
| 2026-04-20 23:14 | -20.79270 | -48.79492 | 36015 ft | 449 kts | 318° |
| 2026-04-20 23:14 | -20.74151 | -48.83335 | 36008 ft | 449 kts | 318° |
| 2026-04-20 23:15 | -20.69035 | -48.87171 | 36017 ft | 449 kts | 318° |
| 2026-04-20 23:15 | -20.63904 | -48.91016 | 35996 ft | 450 kts | 318° |
| 2026-04-20 23:16 | -20.58773 | -48.94859 | 36007 ft | 451 kts | 318° |
| 2026-04-20 23:16 | -20.53625 | -48.98712 | 36009 ft | 452 kts | 318° |
| 2026-04-20 23:17 | -20.48464 | -49.02572 | 36002 ft | 454 kts | 318° |
| 2026-04-20 23:17 | -20.43291 | -49.06437 | 35990 ft | 455 kts | 319° |
| 2026-04-20 23:18 | -20.38099 | -49.10316 | 35901 ft | 457 kts | 322° |
| 2026-04-20 23:18 | -20.32877 | -49.14210 | 36002 ft | 460 kts | 322° |
| 2026-04-20 23:19 | -20.27595 | -49.18147 | 36008 ft | 466 kts | 322° |
| 2026-04-20 23:19 | -20.22252 | -49.22126 | 35989 ft | 471 kts | 322° |
| 2026-04-20 23:20 | -20.16863 | -49.26136 | 35993 ft | 474 kts | 322° |
| 2026-04-20 23:20 | -20.11436 | -49.30169 | 35999 ft | 476 kts | 322° |
| 2026-04-20 23:21 | -20.06008 | -49.34200 | 35967 ft | 474 kts | 322° |
| 2026-04-20 23:21 | -20.00648 | -49.38174 | 35966 ft | 466 kts | 322° |
| 2026-04-20 23:22 | -19.95321 | -49.42125 | 35991 ft | 467 kts | 322° |
| 2026-04-20 23:22 | -19.90893 | -49.45408 | 35988 ft | 467 kts | 322° |
| 2026-04-20 23:23 | -19.84678 | -49.50009 | 35996 ft | 469 kts | 322° |
| 2026-04-20 23:23 | -19.80188 | -49.53331 | 35984 ft | 470 kts | 322° |
| 2026-04-20 23:24 | -19.74814 | -49.57303 | 35994 ft | 471 kts | 322° |
| 2026-04-20 23:24 | -19.69429 | -49.61279 | 35983 ft | 472 kts | 322° |
| 2026-04-20 23:25 | -19.64070 | -49.65234 | 35985 ft | 472 kts | 322° |
| 2026-04-20 23:25 | -19.58676 | -49.69211 | 35978 ft | 472 kts | 322° |
| 2026-04-20 23:26 | -19.53271 | -49.73193 | 35973 ft | 472 kts | 322° |
| 2026-04-20 23:26 | -19.47873 | -49.77166 | 35981 ft | 472 kts | 321° |
| 2026-04-20 23:27 | -19.42479 | -49.81134 | 35975 ft | 472 kts | 321° |
| 2026-04-20 23:27 | -19.37081 | -49.85103 | 35971 ft | 471 kts | 321° |
| 2026-04-20 23:28 | -19.31675 | -49.89041 | 35975 ft | 471 kts | 322° |
| 2026-04-20 23:28 | -19.26231 | -49.92893 | 35970 ft | 471 kts | 322° |
| 2026-04-20 23:29 | -19.20771 | -49.96736 | 35978 ft | 470 kts | 322° |
| 2026-04-20 23:29 | -19.15354 | -50.00559 | 35971 ft | 470 kts | 322° |
| 2026-04-20 23:30 | -19.09905 | -50.04411 | 35970 ft | 470 kts | 322° |
| 2026-04-20 23:30 | -19.04460 | -50.08259 | 35960 ft | 471 kts | 322° |
| 2026-04-20 23:31 | -18.99018 | -50.12103 | 35965 ft | 471 kts | 322° |
| 2026-04-20 23:31 | -18.93568 | -50.15949 | 35956 ft | 471 kts | 322° |
| 2026-04-20 23:32 | -18.88113 | -50.19794 | 35948 ft | 471 kts | 321° |
| 2026-04-20 23:32 | -18.82654 | -50.23640 | 35960 ft | 472 kts | 321° |
| 2026-04-20 23:33 | -18.77191 | -50.27485 | 35953 ft | 472 kts | 321° |
| 2026-04-20 23:33 | -18.71755 | -50.31309 | 35955 ft | 472 kts | 321° |
| 2026-04-20 23:34 | -18.66247 | -50.35179 | 35953 ft | 472 kts | 321° |
| 2026-04-20 23:34 | -18.60815 | -50.38994 | 35959 ft | 472 kts | 321° |
| 2026-04-20 23:35 | -18.52609 | -50.44750 | 35962 ft | 472 kts | 321° |
| 2026-04-20 23:36 | -18.47135 | -50.48586 | 35948 ft | 471 kts | 321° |
| 2026-04-20 23:36 | -18.41677 | -50.52409 | 35960 ft | 471 kts | 321° |
| 2026-04-20 23:37 | -18.36252 | -50.56204 | 35968 ft | 470 kts | 321° |
| 2026-04-20 23:37 | -18.30807 | -50.60012 | 35971 ft | 470 kts | 321° |
| 2026-04-20 23:38 | -18.25360 | -50.63818 | 35963 ft | 470 kts | 321° |
| 2026-04-20 23:38 | -18.19915 | -50.67619 | 35969 ft | 469 kts | 321° |
| 2026-04-20 23:39 | -18.14477 | -50.71412 | 35977 ft | 469 kts | 321° |
| 2026-04-20 23:39 | -18.09031 | -50.75209 | 35970 ft | 470 kts | 321° |
| 2026-04-20 23:40 | -18.03581 | -50.79006 | 35979 ft | 470 kts | 321° |
| 2026-04-20 23:40 | -17.98127 | -50.82802 | 35973 ft | 471 kts | 321° |
| 2026-04-20 23:41 | -17.92655 | -50.86608 | 35974 ft | 471 kts | 321° |
| 2026-04-20 23:41 | -17.87187 | -50.90408 | 35985 ft | 472 kts | 321° |
| 2026-04-20 23:42 | -17.81707 | -50.94213 | 35980 ft | 472 kts | 321° |
| 2026-04-20 23:42 | -17.76220 | -50.98021 | 35982 ft | 473 kts | 321° |
| 2026-04-20 23:43 | -17.70729 | -51.01829 | 35985 ft | 473 kts | 321° |
| 2026-04-20 23:43 | -17.65231 | -51.05638 | 35984 ft | 474 kts | 321° |
| 2026-04-20 23:44 | -17.59728 | -51.09448 | 35983 ft | 474 kts | 321° |
| 2026-04-20 23:44 | -17.54228 | -51.13253 | 35985 ft | 473 kts | 321° |
| 2026-04-20 23:45 | -17.48725 | -51.17057 | 35988 ft | 473 kts | 321° |
| 2026-04-20 23:45 | -17.43226 | -51.20857 | 35987 ft | 473 kts | 321° |
| 2026-04-20 23:46 | -17.37732 | -51.24649 | 35986 ft | 473 kts | 321° |
| 2026-04-20 23:46 | -17.32274 | -51.28414 | 35978 ft | 472 kts | 321° |
| 2026-04-20 23:47 | -17.26749 | -51.32223 | 35992 ft | 472 kts | 321° |
| 2026-04-20 23:47 | -17.21296 | -51.35979 | 35984 ft | 472 kts | 322° |
| 2026-04-20 23:48 | -17.15810 | -51.39756 | 35981 ft | 472 kts | 322° |
| 2026-04-20 23:48 | -17.10324 | -51.43529 | 35984 ft | 471 kts | 322° |
| 2026-04-20 23:49 | -17.04830 | -51.47305 | 35966 ft | 471 kts | 322° |
| 2026-04-20 23:49 | -16.99357 | -51.51064 | 35971 ft | 471 kts | 322° |
| 2026-04-20 23:50 | -16.93907 | -51.54805 | 35965 ft | 471 kts | 322° |
| 2026-04-20 23:50 | -16.88440 | -51.58555 | 35967 ft | 470 kts | 322° |
| 2026-04-20 23:51 | -16.82962 | -51.62310 | 35963 ft | 470 kts | 322° |
| 2026-04-20 23:51 | -16.77488 | -51.66059 | 35968 ft | 470 kts | 322° |
| 2026-04-20 23:52 | -16.72018 | -51.69804 | 35957 ft | 470 kts | 322° |
| 2026-04-20 23:52 | -16.66537 | -51.73552 | 35962 ft | 471 kts | 322° |
| 2026-04-20 23:53 | -16.61091 | -51.77275 | 35943 ft | 471 kts | 322° |
| 2026-04-20 23:53 | -16.55611 | -51.81018 | 35949 ft | 471 kts | 322° |
| 2026-04-20 23:54 | -16.50120 | -51.84766 | 35949 ft | 471 kts | 322° |
| 2026-04-20 23:54 | -16.44635 | -51.88507 | 35947 ft | 471 kts | 322° |
| 2026-04-20 23:55 | -16.39142 | -51.92252 | 35937 ft | 472 kts | 322° |
| 2026-04-20 23:55 | -16.33652 | -51.95991 | 35933 ft | 472 kts | 322° |
| 2026-04-20 23:56 | -16.28161 | -51.99728 | 35930 ft | 471 kts | 322° |
| 2026-04-20 23:56 | -16.22668 | -52.03465 | 35933 ft | 471 kts | 322° |
| 2026-04-20 23:57 | -16.17182 | -52.07194 | 35926 ft | 471 kts | 322° |
| 2026-04-20 23:57 | -16.11696 | -52.10920 | 35920 ft | 471 kts | 323° |
| 2026-04-20 23:58 | -16.06215 | -52.14641 | 35928 ft | 470 kts | 323° |
| 2026-04-20 23:58 | -16.00731 | -52.18362 | 35932 ft | 470 kts | 323° |
| 2026-04-20 23:59 | -15.95259 | -52.22071 | 35932 ft | 470 kts | 323° |
| 2026-04-20 23:59 | -15.89821 | -52.25756 | 35939 ft | 470 kts | 323° |
| 2026-04-21 00:00 | -15.84343 | -52.29465 | 35931 ft | 470 kts | 323° |
| 2026-04-21 00:00 | -15.78870 | -52.33169 | 35940 ft | 469 kts | 323° |
| 2026-04-21 00:01 | -15.73381 | -52.36880 | 35944 ft | 470 kts | 323° |
| 2026-04-21 00:01 | -15.67903 | -52.40582 | 35934 ft | 470 kts | 323° |
| 2026-04-21 00:02 | -15.62398 | -52.44299 | 35928 ft | 471 kts | 323° |
| 2026-04-21 00:02 | -15.56902 | -52.48008 | 35938 ft | 471 kts | 323° |
| 2026-04-21 00:03 | -15.51439 | -52.51692 | 35940 ft | 471 kts | 323° |
| 2026-04-21 00:03 | -15.45936 | -52.55401 | 35943 ft | 471 kts | 323° |
| 2026-04-21 00:04 | -15.40432 | -52.59108 | 35936 ft | 471 kts | 323° |
| 2026-04-21 00:04 | -15.34925 | -52.62815 | 35942 ft | 471 kts | 323° |
| 2026-04-21 00:05 | -15.29435 | -52.66508 | 35936 ft | 470 kts | 323° |
| 2026-04-21 00:05 | -15.24871 | -52.69576 | 35936 ft | 470 kts | 323° |
| 2026-04-21 00:06 | -15.19389 | -52.73260 | 35937 ft | 470 kts | 323° |
| 2026-04-21 00:06 | -15.13906 | -52.76942 | 35933 ft | 470 kts | 323° |
| 2026-04-21 00:07 | -15.08425 | -52.80620 | 35928 ft | 469 kts | 323° |
| 2026-04-21 00:07 | -15.02940 | -52.84298 | 35929 ft | 469 kts | 323° |
| 2026-04-21 00:08 | -14.97460 | -52.87971 | 35930 ft | 469 kts | 323° |
| 2026-04-21 00:08 | -14.91988 | -52.91636 | 35932 ft | 469 kts | 323° |
| 2026-04-21 00:09 | -14.86545 | -52.95280 | 35932 ft | 469 kts | 323° |
| 2026-04-21 00:09 | -14.81069 | -52.98944 | 35931 ft | 469 kts | 323° |
| 2026-04-21 00:10 | -14.75593 | -53.02605 | 35937 ft | 469 kts | 323° |
| 2026-04-21 00:10 | -14.70109 | -53.06269 | 35937 ft | 469 kts | 323° |
| 2026-04-21 00:11 | -14.64621 | -53.09934 | 35938 ft | 469 kts | 323° |
| 2026-04-21 00:11 | -14.59142 | -53.13591 | 35937 ft | 469 kts | 324° |
| 2026-04-21 00:12 | -14.53653 | -53.17252 | 35935 ft | 469 kts | 324° |
| 2026-04-21 00:12 | -14.48176 | -53.20903 | 35940 ft | 469 kts | 324° |
| 2026-04-21 00:13 | -14.42690 | -53.24558 | 35937 ft | 469 kts | 324° |
| 2026-04-21 00:13 | -14.37207 | -53.28208 | 35940 ft | 468 kts | 324° |
| 2026-04-21 00:14 | -14.31737 | -53.31847 | 35941 ft | 468 kts | 324° |
| 2026-04-21 00:14 | -14.26305 | -53.35460 | 35941 ft | 467 kts | 324° |
| 2026-04-21 00:15 | -14.20832 | -53.39098 | 35935 ft | 467 kts | 324° |
| 2026-04-21 00:15 | -14.15376 | -53.42722 | 35939 ft | 466 kts | 324° |
| 2026-04-21 00:16 | -14.09921 | -53.46344 | 35941 ft | 466 kts | 324° |
| 2026-04-21 00:16 | -14.04471 | -53.49960 | 35941 ft | 466 kts | 324° |
| 2026-04-21 00:17 | -13.99025 | -53.53572 | 35937 ft | 466 kts | 324° |
| 2026-04-21 00:17 | -13.93570 | -53.57188 | 35943 ft | 466 kts | 324° |
| 2026-04-21 00:18 | -13.88149 | -53.60774 | 35942 ft | 466 kts | 324° |
| 2026-04-21 00:18 | -13.82690 | -53.64379 | 35944 ft | 466 kts | 325° |
| 2026-04-21 00:19 | -13.77231 | -53.67983 | 35941 ft | 467 kts | 325° |
| 2026-04-21 00:19 | -13.71763 | -53.71592 | 35944 ft | 467 kts | 325° |
| 2026-04-21 00:20 | -13.66286 | -53.75205 | 35949 ft | 467 kts | 325° |
| 2026-04-21 00:20 | -13.60817 | -53.78812 | 35938 ft | 467 kts | 325° |
| 2026-04-21 00:21 | -13.55343 | -53.82420 | 35944 ft | 467 kts | 325° |
| 2026-04-21 00:21 | -13.49873 | -53.86022 | 35939 ft | 466 kts | 325° |
| 2026-04-21 00:22 | -13.44417 | -53.89614 | 35936 ft | 465 kts | 325° |
| 2026-04-21 00:22 | -13.38991 | -53.93184 | 35942 ft | 465 kts | 325° |
| 2026-04-21 00:23 | -13.33550 | -53.96763 | 35935 ft | 464 kts | 326° |
| 2026-04-21 00:23 | -13.28120 | -54.00331 | 35949 ft | 463 kts | 326° |
| 2026-04-21 00:24 | -13.22692 | -54.03897 | 35939 ft | 463 kts | 326° |
| 2026-04-21 00:24 | -13.17267 | -54.07459 | 35945 ft | 462 kts | 326° |
| 2026-04-21 00:25 | -13.11853 | -54.11012 | 35942 ft | 462 kts | 326° |
| 2026-04-21 00:25 | -13.06437 | -54.14564 | 35940 ft | 461 kts | 326° |
| 2026-04-21 00:26 | -13.01024 | -54.18112 | 35942 ft | 461 kts | 326° |
| 2026-04-21 00:26 | -12.95609 | -54.21659 | 35940 ft | 462 kts | 326° |
| 2026-04-21 00:27 | -12.90223 | -54.25187 | 35945 ft | 462 kts | 326° |
| 2026-04-21 00:27 | -12.84798 | -54.28737 | 35945 ft | 463 kts | 326° |
| 2026-04-21 00:28 | -12.79364 | -54.32291 | 35934 ft | 463 kts | 326° |
| 2026-04-21 00:28 | -12.73929 | -54.35845 | 35941 ft | 463 kts | 326° |
| 2026-04-21 00:29 | -12.68486 | -54.39402 | 35943 ft | 464 kts | 326° |
| 2026-04-21 00:29 | -12.63040 | -54.42959 | 35944 ft | 464 kts | 326° |
| 2026-04-21 00:30 | -12.57593 | -54.46514 | 35945 ft | 464 kts | 326° |
| 2026-04-21 00:30 | -12.52151 | -54.50065 | 35944 ft | 464 kts | 326° |
| 2026-04-21 00:31 | -12.46700 | -54.53619 | 35946 ft | 464 kts | 326° |
| 2026-04-21 00:31 | -12.41291 | -54.57145 | 35945 ft | 464 kts | 326° |
| 2026-04-21 00:32 | -12.35849 | -54.60691 | 35945 ft | 463 kts | 326° |
| 2026-04-21 00:32 | -12.30412 | -54.64231 | 35945 ft | 463 kts | 326° |
| 2026-04-21 00:33 | -12.24977 | -54.67768 | 35940 ft | 463 kts | 326° |
| 2026-04-21 00:33 | -12.19546 | -54.71301 | 35949 ft | 462 kts | 326° |
| 2026-04-21 00:34 | -12.14119 | -54.74829 | 35946 ft | 462 kts | 326° |
| 2026-04-21 00:34 | -12.08696 | -54.78354 | 35948 ft | 462 kts | 327° |
| 2026-04-21 00:35 | -12.03257 | -54.81886 | 35950 ft | 462 kts | 327° |
| 2026-04-21 00:35 | -11.97837 | -54.85405 | 35951 ft | 462 kts | 327° |
| 2026-04-21 00:36 | -11.92399 | -54.88934 | 35950 ft | 463 kts | 327° |
| 2026-04-21 00:36 | -11.86967 | -54.92457 | 35948 ft | 463 kts | 327° |
| 2026-04-21 00:37 | -11.81528 | -54.95983 | 35949 ft | 463 kts | 327° |
| 2026-04-21 00:37 | -11.76084 | -54.99511 | 35949 ft | 464 kts | 327° |
| 2026-04-21 00:38 | -11.70669 | -55.03018 | 35951 ft | 464 kts | 327° |
| 2026-04-21 00:38 | -11.65220 | -55.06546 | 35951 ft | 464 kts | 327° |
| 2026-04-21 00:39 | -11.59765 | -55.10075 | 35947 ft | 464 kts | 327° |
| 2026-04-21 00:39 | -11.54311 | -55.13603 | 35948 ft | 464 kts | 327° |
| 2026-04-21 00:40 | -11.48859 | -55.17127 | 35950 ft | 464 kts | 327° |
| 2026-04-21 00:40 | -11.43407 | -55.20650 | 35947 ft | 464 kts | 327° |
| 2026-04-21 00:41 | -11.37956 | -55.24171 | 35953 ft | 464 kts | 328° |
| 2026-04-21 00:41 | -11.32498 | -55.27694 | 35953 ft | 464 kts | 328° |
| 2026-04-21 00:42 | -11.27039 | -55.31217 | 35954 ft | 464 kts | 328° |
| 2026-04-21 00:42 | -11.21592 | -55.34730 | 35954 ft | 464 kts | 328° |
| 2026-04-21 00:43 | -11.16129 | -55.38252 | 35952 ft | 464 kts | 328° |
| 2026-04-21 00:43 | -11.10660 | -55.41776 | 35954 ft | 464 kts | 328° |
| 2026-04-21 00:44 | -11.05204 | -55.45290 | 35955 ft | 465 kts | 328° |
| 2026-04-21 00:44 | -10.99742 | -55.48807 | 35954 ft | 465 kts | 328° |
| 2026-04-21 00:45 | -10.91542 | -55.54083 | 35959 ft | 465 kts | 328° |
| 2026-04-21 00:45 | -10.86075 | -55.57599 | 35956 ft | 465 kts | 328° |
| 2026-04-21 00:46 | -10.80596 | -55.61121 | 35953 ft | 465 kts | 328° |
| 2026-04-21 00:46 | -10.75121 | -55.64639 | 35954 ft | 465 kts | 328° |
| 2026-04-21 00:47 | -10.69679 | -55.68134 | 35956 ft | 465 kts | 328° |
| 2026-04-21 00:47 | -10.64207 | -55.71647 | 35955 ft | 465 kts | 328° |
| 2026-04-21 00:48 | -10.58732 | -55.75160 | 35951 ft | 465 kts | 328° |
| 2026-04-21 00:48 | -10.53259 | -55.78671 | 35956 ft | 465 kts | 329° |
| 2026-04-21 00:49 | -10.47786 | -55.82180 | 35954 ft | 465 kts | 329° |
| 2026-04-21 00:49 | -10.42310 | -55.85689 | 35954 ft | 465 kts | 329° |
| 2026-04-21 00:50 | -10.37749 | -55.88611 | 35953 ft | 465 kts | 329° |
| 2026-04-21 00:50 | -10.32270 | -55.92121 | 35955 ft | 466 kts | 329° |
| 2026-04-21 00:51 | -10.26792 | -55.95627 | 35956 ft | 466 kts | 329° |
| 2026-04-21 00:51 | -10.21307 | -55.99137 | 35957 ft | 466 kts | 329° |
| 2026-04-21 00:52 | -10.15821 | -56.02645 | 35956 ft | 466 kts | 329° |
| 2026-04-21 00:52 | -10.10347 | -56.06145 | 35956 ft | 465 kts | 329° |
| 2026-04-21 00:53 | -10.04864 | -56.09649 | 35959 ft | 465 kts | 329° |
| 2026-04-21 00:53 | -9.99382 | -56.13152 | 35961 ft | 465 kts | 329° |
| 2026-04-21 00:54 | -9.93911 | -56.16646 | 35959 ft | 465 kts | 329° |
| 2026-04-21 00:54 | -9.88431 | -56.20144 | 35958 ft | 464 kts | 329° |
| 2026-04-21 00:55 | -9.83000 | -56.23610 | 35959 ft | 464 kts | 329° |
| 2026-04-21 00:55 | -9.77502 | -56.27117 | 35959 ft | 464 kts | 329° |
| 2026-04-21 00:56 | -9.72068 | -56.30582 | 35963 ft | 463 kts | 329° |
| 2026-04-21 00:56 | -9.66650 | -56.34117 | 35956 ft | 464 kts | 328° |
| 2026-04-21 00:57 | -9.61248 | -56.37698 | 35962 ft | 464 kts | 328° |
| 2026-04-21 00:57 | -9.55851 | -56.41273 | 35962 ft | 464 kts | 328° |
| 2026-04-21 00:58 | -9.50435 | -56.44848 | 35960 ft | 464 kts | 328° |
| 2026-04-21 00:58 | -9.45007 | -56.48425 | 35964 ft | 465 kts | 328° |
| 2026-04-21 00:59 | -9.39578 | -56.52000 | 35961 ft | 465 kts | 328° |
| 2026-04-21 00:59 | -9.34151 | -56.55573 | 35960 ft | 465 kts | 328° |
| 2026-04-21 01:00 | -9.28716 | -56.59150 | 35953 ft | 466 kts | 328° |
| 2026-04-21 01:00 | -9.23313 | -56.62704 | 35963 ft | 466 kts | 328° |
| 2026-04-21 01:01 | -9.17873 | -56.66282 | 35959 ft | 466 kts | 328° |
| 2026-04-21 01:01 | -9.12431 | -56.69860 | 35960 ft | 466 kts | 328° |
| 2026-04-21 01:02 | -9.06977 | -56.73444 | 35959 ft | 466 kts | 328° |
| 2026-04-21 01:02 | -9.01534 | -56.77020 | 35957 ft | 466 kts | 328° |
| 2026-04-21 01:03 | -8.96093 | -56.80592 | 35959 ft | 466 kts | 328° |
| 2026-04-21 01:03 | -8.90655 | -56.84162 | 35958 ft | 466 kts | 328° |
| 2026-04-21 01:04 | -8.85226 | -56.87725 | 35963 ft | 465 kts | 329° |
| 2026-04-21 01:04 | -8.79826 | -56.91267 | 35956 ft | 465 kts | 329° |
| 2026-04-21 01:05 | -8.74409 | -56.94819 | 35967 ft | 464 kts | 329° |
| 2026-04-21 01:05 | -8.68991 | -56.98371 | 35961 ft | 464 kts | 329° |
| 2026-04-21 01:06 | -8.63579 | -57.01917 | 35968 ft | 463 kts | 329° |
| 2026-04-21 01:06 | -8.58168 | -57.05462 | 35969 ft | 463 kts | 329° |
| 2026-04-21 01:07 | -8.52766 | -57.08998 | 35970 ft | 463 kts | 329° |
| 2026-04-21 01:07 | -8.47360 | -57.12537 | 35971 ft | 462 kts | 329° |
| 2026-04-21 01:08 | -8.41958 | -57.16073 | 35970 ft | 462 kts | 329° |
| 2026-04-21 01:08 | -8.36555 | -57.19607 | 35969 ft | 462 kts | 329° |
| 2026-04-21 01:09 | -8.31187 | -57.23117 | 35967 ft | 463 kts | 329° |
| 2026-04-21 01:09 | -8.25783 | -57.26650 | 35968 ft | 463 kts | 328° |
| 2026-04-21 01:10 | -8.20377 | -57.30183 | 35965 ft | 463 kts | 328° |
| 2026-04-21 01:10 | -8.14960 | -57.33721 | 35968 ft | 463 kts | 328° |
| 2026-04-21 01:11 | -8.09542 | -57.37260 | 35967 ft | 464 kts | 328° |
| 2026-04-21 01:11 | -8.04123 | -57.40797 | 35964 ft | 464 kts | 329° |
| 2026-04-21 01:12 | -7.98701 | -57.44336 | 35963 ft | 464 kts | 329° |
| 2026-04-21 01:12 | -7.93273 | -57.47878 | 35966 ft | 464 kts | 329° |
| 2026-04-21 01:13 | -7.87841 | -57.51421 | 35962 ft | 465 kts | 329° |
| 2026-04-21 01:13 | -7.82440 | -57.54942 | 35962 ft | 465 kts | 329° |
| 2026-04-21 01:14 | -7.77006 | -57.58484 | 35963 ft | 465 kts | 329° |
| 2026-04-21 01:14 | -7.71566 | -57.62029 | 35963 ft | 465 kts | 329° |
| 2026-04-21 01:15 | -7.66123 | -57.65575 | 35961 ft | 466 kts | 329° |
| 2026-04-21 01:15 | -7.60677 | -57.69121 | 35963 ft | 466 kts | 328° |
| 2026-04-21 01:16 | -7.55230 | -57.72667 | 35960 ft | 466 kts | 329° |
| 2026-04-21 01:16 | -7.49781 | -57.76213 | 35958 ft | 466 kts | 329° |
| 2026-04-21 01:17 | -7.44336 | -57.79756 | 35962 ft | 465 kts | 329° |
| 2026-04-21 01:17 | -7.38925 | -57.83275 | 35957 ft | 465 kts | 329° |
| 2026-04-21 01:18 | -7.33483 | -57.86814 | 35960 ft | 465 kts | 329° |
| 2026-04-21 01:18 | -7.28051 | -57.90346 | 35960 ft | 465 kts | 329° |
| 2026-04-21 01:19 | -7.22603 | -57.93886 | 35955 ft | 466 kts | 328° |
| 2026-04-21 01:19 | -7.17157 | -57.97424 | 35959 ft | 466 kts | 328° |
| 2026-04-21 01:20 | -7.11702 | -58.00966 | 35956 ft | 467 kts | 328° |
| 2026-04-21 01:20 | -7.06241 | -58.04512 | 35950 ft | 467 kts | 329° |
| 2026-04-21 01:21 | -7.00775 | -58.08060 | 35960 ft | 468 kts | 329° |
| 2026-04-21 01:21 | -6.95298 | -58.11614 | 35953 ft | 469 kts | 329° |
| 2026-04-21 01:22 | -6.89810 | -58.15174 | 35959 ft | 469 kts | 329° |
| 2026-04-21 01:22 | -6.84324 | -58.18732 | 35953 ft | 470 kts | 329° |
| 2026-04-21 01:23 | -6.78829 | -58.22295 | 35953 ft | 470 kts | 329° |
| 2026-04-21 01:23 | -6.73328 | -58.25861 | 35957 ft | 470 kts | 329° |
| 2026-04-21 01:24 | -6.67856 | -58.29407 | 35954 ft | 470 kts | 329° |
| 2026-04-21 01:24 | -6.62356 | -58.32970 | 35951 ft | 470 kts | 329° |
| 2026-04-21 01:25 | -6.56855 | -58.36533 | 35951 ft | 470 kts | 329° |
| 2026-04-21 01:25 | -6.51353 | -58.40096 | 35948 ft | 470 kts | 329° |
| 2026-04-21 01:26 | -6.45852 | -58.43656 | 35956 ft | 470 kts | 329° |
| 2026-04-21 01:26 | -6.40354 | -58.47214 | 35953 ft | 470 kts | 329° |
| 2026-04-21 01:27 | -6.34851 | -58.50775 | 35950 ft | 470 kts | 329° |
| 2026-04-21 01:27 | -6.29352 | -58.54332 | 35948 ft | 470 kts | 329° |
| 2026-04-21 01:28 | -6.23860 | -58.57883 | 35952 ft | 470 kts | 329° |
| 2026-04-21 01:28 | -6.18361 | -58.61438 | 35947 ft | 470 kts | 329° |
| 2026-04-21 01:29 | -6.12864 | -58.64991 | 35954 ft | 470 kts | 329° |
| 2026-04-21 01:29 | -6.07364 | -58.68545 | 35949 ft | 470 kts | 329° |
| 2026-04-21 01:30 | -6.01862 | -58.72099 | 35952 ft | 470 kts | 329° |
| 2026-04-21 01:30 | -5.96394 | -58.75631 | 35949 ft | 470 kts | 329° |
| 2026-04-21 01:31 | -5.90891 | -58.79184 | 35948 ft | 470 kts | 329° |
| 2026-04-21 01:31 | -5.85387 | -58.82737 | 35952 ft | 470 kts | 329° |
| 2026-04-21 01:32 | -5.79885 | -58.86288 | 35951 ft | 470 kts | 329° |
| 2026-04-21 01:32 | -5.74380 | -58.89840 | 35950 ft | 469 kts | 329° |
| 2026-04-21 01:33 | -5.69811 | -58.92788 | 35948 ft | 469 kts | 329° |
| 2026-04-21 01:33 | -5.63433 | -58.96901 | 35947 ft | 468 kts | 329° |
| 2026-04-21 01:34 | -5.58841 | -58.99862 | 35947 ft | 467 kts | 329° |
| 2026-04-21 01:34 | -5.53382 | -59.03381 | 35950 ft | 467 kts | 329° |
| 2026-04-21 01:35 | -5.47912 | -59.06907 | 35949 ft | 466 kts | 329° |
| 2026-04-21 01:35 | -5.42451 | -59.10426 | 35946 ft | 466 kts | 329° |
| 2026-04-21 01:36 | -5.36988 | -59.13945 | 35950 ft | 466 kts | 329° |
| 2026-04-21 01:36 | -5.31530 | -59.17460 | 35947 ft | 466 kts | 329° |
| 2026-04-21 01:37 | -5.26067 | -59.20979 | 35945 ft | 466 kts | 329° |
| 2026-04-21 01:37 | -5.20608 | -59.24493 | 35948 ft | 466 kts | 329° |
| 2026-04-21 01:38 | -5.15137 | -59.28015 | 35555 ft | 467 kts | 329° |
| 2026-04-21 01:38 | -5.12460 | -59.29738 | 35206 ft | 461 kts | 329° |
| 2026-04-21 01:38 | -5.09774 | -59.31468 | 34812 ft | 457 kts | 329° |
| 2026-04-21 01:39 | -5.07110 | -59.33183 | 34417 ft | 454 kts | 329° |
| 2026-04-21 01:39 | -5.04425 | -59.34911 | 34006 ft | 451 kts | 329° |
| 2026-04-21 01:39 | -5.01792 | -59.36605 | 33553 ft | 448 kts | 329° |
| 2026-04-21 01:39 | -4.99197 | -59.38275 | 33302 ft | 442 kts | 329° |
| 2026-04-21 01:40 | -4.96614 | -59.39934 | 33080 ft | 451 kts | 329° |
| 2026-04-21 01:40 | -4.93934 | -59.41655 | 32843 ft | 462 kts | 329° |
| 2026-04-21 01:40 | -4.91181 | -59.43422 | 32616 ft | 473 kts | 329° |
| 2026-04-21 01:40 | -4.88394 | -59.45213 | 32381 ft | 481 kts | 329° |
| 2026-04-21 01:41 | -4.85568 | -59.47030 | 32141 ft | 482 kts | 329° |
| 2026-04-21 01:41 | -4.82754 | -59.48842 | 31888 ft | 479 kts | 329° |
| 2026-04-21 01:41 | -4.79958 | -59.50641 | 31637 ft | 476 kts | 329° |
| 2026-04-21 01:41 | -4.77188 | -59.52423 | 31201 ft | 470 kts | 329° |
| 2026-04-21 01:42 | -4.74452 | -59.54184 | 30761 ft | 466 kts | 329° |
| 2026-04-21 01:42 | -4.71739 | -59.55927 | 30302 ft | 462 kts | 329° |
| 2026-04-21 01:42 | -4.69051 | -59.57655 | 29797 ft | 459 kts | 329° |
| 2026-04-21 01:42 | -4.66361 | -59.59383 | 29259 ft | 456 kts | 329° |
| 2026-04-21 01:43 | -4.63700 | -59.61092 | 28752 ft | 451 kts | 329° |
| 2026-04-21 01:43 | -4.61066 | -59.62785 | 28270 ft | 447 kts | 329° |
| 2026-04-21 01:43 | -4.58454 | -59.64463 | 27788 ft | 443 kts | 329° |
| 2026-04-21 01:43 | -4.55868 | -59.66123 | 27317 ft | 440 kts | 329° |
| 2026-04-21 01:44 | -4.53300 | -59.67773 | 26850 ft | 436 kts | 329° |
| 2026-04-21 01:44 | -4.50755 | -59.69407 | 26389 ft | 433 kts | 329° |
| 2026-04-21 01:44 | -4.48224 | -59.71032 | 25927 ft | 430 kts | 329° |
| 2026-04-21 01:44 | -4.45736 | -59.72630 | 25452 ft | 427 kts | 329° |
| 2026-04-21 01:45 | -4.43241 | -59.74231 | 24999 ft | 425 kts | 329° |
| 2026-04-21 01:45 | -4.40754 | -59.75828 | 24524 ft | 423 kts | 329° |
| 2026-04-21 01:45 | -4.38279 | -59.77416 | 24064 ft | 421 kts | 328° |
| 2026-04-21 01:45 | -4.35815 | -59.78998 | 23594 ft | 420 kts | 328° |
| 2026-04-21 01:46 | -4.33359 | -59.80574 | 23070 ft | 418 kts | 328° |
| 2026-04-21 01:46 | -4.30919 | -59.82140 | 22585 ft | 414 kts | 328° |
| 2026-04-21 01:46 | -4.28496 | -59.83696 | 22123 ft | 411 kts | 328° |
| 2026-04-21 01:46 | -4.26100 | -59.85233 | 21671 ft | 408 kts | 328° |
| 2026-04-21 01:47 | -4.23717 | -59.86762 | 21217 ft | 405 kts | 328° |
| 2026-04-21 01:47 | -4.21355 | -59.88278 | 20780 ft | 402 kts | 328° |
| 2026-04-21 01:47 | -4.19009 | -59.89783 | 20341 ft | 399 kts | 328° |
| 2026-04-21 01:47 | -4.16675 | -59.91281 | 19894 ft | 396 kts | 328° |
| 2026-04-21 01:48 | -4.14362 | -59.92765 | 19448 ft | 395 kts | 328° |
| 2026-04-21 01:48 | -4.12057 | -59.94243 | 19011 ft | 392 kts | 328° |
| 2026-04-21 01:48 | -4.09754 | -59.95635 | 18561 ft | 390 kts | 335° |
| 2026-04-21 01:48 | -4.07211 | -59.96544 | 18153 ft | 386 kts | 344° |
| 2026-04-21 01:49 | -4.04631 | -59.97292 | 17648 ft | 385 kts | 345° |
| 2026-04-21 01:49 | -4.02062 | -59.98010 | 17210 ft | 382 kts | 345° |
| 2026-04-21 01:49 | -3.99516 | -59.98727 | 16770 ft | 379 kts | 345° |
| 2026-04-21 01:49 | -3.96994 | -59.99451 | 16350 ft | 376 kts | 344° |
| 2026-04-21 01:50 | -3.94493 | -60.00182 | 15933 ft | 373 kts | 344° |
| 2026-04-21 01:50 | -3.92012 | -60.00915 | 15510 ft | 371 kts | 343° |
| 2026-04-21 01:50 | -3.89551 | -60.01647 | 15098 ft | 368 kts | 343° |
| 2026-04-21 01:50 | -3.87097 | -60.02380 | 14671 ft | 367 kts | 343° |
| 2026-04-21 01:51 | -3.84660 | -60.03109 | 14251 ft | 365 kts | 343° |
| 2026-04-21 01:51 | -3.82226 | -60.03837 | 13837 ft | 363 kts | 343° |
| 2026-04-21 01:51 | -3.79813 | -60.04559 | 13380 ft | 361 kts | 343° |
| 2026-04-21 01:51 | -3.77409 | -60.05279 | 12951 ft | 359 kts | 343° |
| 2026-04-21 01:52 | -3.75026 | -60.05991 | 12536 ft | 356 kts | 343° |
| 2026-04-21 01:52 | -3.70311 | -60.07402 | 11720 ft | 351 kts | 343° |
| 2026-04-21 01:52 | -3.67977 | -60.08100 | 11320 ft | 349 kts | 343° |
| 2026-04-21 01:53 | -3.65663 | -60.08792 | 10924 ft | 346 kts | 343° |
| 2026-04-21 01:53 | -3.63362 | -60.09480 | 10620 ft | 341 kts | 343° |
| 2026-04-21 01:53 | -3.61114 | -60.10152 | 10454 ft | 332 kts | 343° |
| 2026-04-21 01:53 | -3.58931 | -60.10805 | 10306 ft | 323 kts | 343° |
| 2026-04-21 01:54 | -3.56801 | -60.11442 | 10163 ft | 314 kts | 343° |
| 2026-04-21 01:54 | -3.54732 | -60.12060 | 10030 ft | 306 kts | 343° |
| 2026-04-21 01:54 | -3.52715 | -60.12663 | 9894 ft | 298 kts | 344° |
| 2026-04-21 01:54 | -3.50755 | -60.13249 | 9600 ft | 296 kts | 344° |
| 2026-04-21 01:55 | -3.48806 | -60.13832 | 9295 ft | 295 kts | 344° |
| 2026-04-21 01:55 | -3.46839 | -60.14420 | 8963 ft | 295 kts | 344° |
| 2026-04-21 01:55 | -3.44880 | -60.15006 | 8670 ft | 293 kts | 344° |
| 2026-04-21 01:55 | -3.42930 | -60.15589 | 8422 ft | 290 kts | 344° |
| 2026-04-21 01:56 | -3.40995 | -60.16168 | 8064 ft | 291 kts | 344° |
| 2026-04-21 01:56 | -3.39062 | -60.16746 | 7780 ft | 289 kts | 344° |
| 2026-04-21 01:56 | -3.37136 | -60.17322 | 7477 ft | 288 kts | 344° |
| 2026-04-21 01:56 | -3.35217 | -60.17896 | 7197 ft | 287 kts | 344° |
| 2026-04-21 01:57 | -3.33306 | -60.18467 | 6917 ft | 286 kts | 344° |
| 2026-04-21 01:57 | -3.31404 | -60.19036 | 6638 ft | 285 kts | 344° |
| 2026-04-21 01:57 | -3.29503 | -60.19605 | 6336 ft | 285 kts | 344° |
| 2026-04-21 01:57 | -3.27613 | -60.20169 | 6037 ft | 283 kts | 344° |
| 2026-04-21 01:58 | -3.25730 | -60.20732 | 5735 ft | 282 kts | 344° |
| 2026-04-21 01:58 | -3.23841 | -60.21263 | 5447 ft | 281 kts | 349° |
| 2026-04-21 01:58 | -3.21926 | -60.21593 | 5186 ft | 278 kts | 352° |
| 2026-04-21 01:58 | -3.20022 | -60.21878 | 4922 ft | 276 kts | 352° |
| 2026-04-21 01:59 | -3.18130 | -60.22172 | 4647 ft | 274 kts | 352° |
| 2026-04-21 01:59 | -3.16249 | -60.22477 | 4365 ft | 273 kts | 351° |
| 2026-04-21 01:59 | -3.14378 | -60.22785 | 4082 ft | 272 kts | 352° |
| 2026-04-21 01:59 | -3.12512 | -60.22954 | 3899 ft | 265 kts | 1° |
| 2026-04-21 02:00 | -3.10721 | -60.22927 | 3861 ft | 250 kts | 2° |
| 2026-04-21 02:00 | -3.09032 | -60.22896 | 3762 ft | 236 kts | 2° |
| 2026-04-21 02:00 | -3.07464 | -60.22878 | 3673 ft | 221 kts | 1° |
| 2026-04-21 02:00 | -3.05968 | -60.22842 | 3445 ft | 212 kts | 9° |
| 2026-04-21 02:01 | -3.04738 | -60.22197 | 3221 ft | 194 kts | 54° |
| 2026-04-21 02:01 | -3.04269 | -60.21004 | 3069 ft | 181 kts | 76° |
| 2026-04-21 02:01 | -3.04047 | -60.19774 | 2834 ft | 178 kts | 83° |
| 2026-04-21 02:01 | -3.03907 | -60.18548 | 2619 ft | 178 kts | 84° |
| 2026-04-21 02:02 | -3.03843 | -60.17318 | 2402 ft | 175 kts | 88° |
| 2026-04-21 02:02 | -3.03835 | -60.16132 | 2171 ft | 167 kts | 89° |
| 2026-04-21 02:02 | -3.03837 | -60.14982 | 1958 ft | 164 kts | 89° |
| 2026-04-21 02:02 | -3.03840 | -60.13882 | 1773 ft | 153 kts | 89° |
| 2026-04-21 02:03 | -3.03842 | -60.12844 | 1563 ft | 145 kts | 89° |
| 2026-04-21 02:03 | -3.03844 | -60.11835 | 1377 ft | 145 kts | 89° |
| 2026-04-21 02:03 | -3.03846 | -60.10814 | 1191 ft | 148 kts | 90° |
| 2026-04-21 02:03 | -3.03847 | -60.09780 | 1017 ft | 150 kts | 89° |
| 2026-04-21 02:04 | -3.03844 | -60.08738 | 847 ft | 151 kts | 90° |
| 2026-04-21 02:04 | -3.03852 | -60.07690 | 633 ft | 150 kts | 89° |
| 2026-04-21 02:04 | -3.03852 | -60.06644 | 415 ft | 150 kts | 90° |
| 2026-04-21 02:04 | -3.03858 | -60.05604 | 268 ft | 145 kts | 90° |
| 2026-04-21 02:05 | -3.03860 | -60.04713 | 268 ft | 107 kts | 90° |
| 2026-04-21 02:05 | -3.03861 | -60.04223 | 268 ft | 49 kts | 90° |
| 2026-04-21 02:05 | -3.03862 | -60.03936 | 268 ft | 28 kts | 90° |
| 2026-04-21 02:05 | -3.03824 | -60.03782 | 267 ft | 21 kts | 35° |
| 2026-04-21 02:06 | -3.03705 | -60.03805 | 268 ft | 18 kts | 308° |
| 2026-04-21 02:06 | -3.03662 | -60.03922 | 267 ft | 18 kts | 285° |
| 2026-04-21 02:06 | -3.03631 | -60.04039 | 267 ft | 17 kts | 285° |
| 2026-04-21 02:06 | -3.03603 | -60.04142 | 267 ft | 13 kts | 285° |
| 2026-04-21 02:07 | -3.03574 | -60.04228 | 267 ft | 13 kts | 295° |
| 2026-04-21 02:07 | -3.03523 | -60.04300 | 267 ft | 13 kts | 315° |
| 2026-04-21 02:07 | -3.03455 | -60.04352 | 267 ft | 12 kts | 331° |
| 2026-04-21 02:07 | -3.03376 | -60.04381 | 267 ft | 12 kts | 344° |
| 2026-04-21 02:08 | -3.03307 | -60.04357 | 267 ft | 12 kts | 63° |
| 2026-04-21 02:08 | -3.03282 | -60.04272 | 267 ft | 13 kts | 76° |
| 2026-04-21 02:08 | -3.03238 | -60.04234 | 267 ft | 6 kts | 340° |
| 2026-04-21 02:08 | -3.03206 | -60.04243 | 267 ft | 0 kts | 346° |